Time;durP1;ratioP1;P1;durP2;ratioP2;P2;SDS_P1;SDS_P2;PMS_P1;PMS_P2;Temp;Humidity;BMP_temperature;BMP_pressure;BME280_temperature;BME280_humidity;BME280_pressure;Samples;Min_cycle;Max_cycle;Signal;HPM_P1;HPM_P2
2022/11/29 00:01:27;;;;;;;;;;;;;;;20.69;26.62;98149.25;4994914;28;996;-76
2022/11/29 00:03:53;;;;;;;;;;;;;;;20.61;26.44;98144.19;4995201;28;991;-76
2022/11/29 00:06:19;;;;;;;;;;;;;;;20.88;26.60;98146.84;4995044;28;983;-76
2022/11/29 00:08:44;;;;;;;;;;;;;;;21.12;26.16;98151.16;4995267;28;955;-76
2022/11/29 00:11:11;;;;;;;;;;;;;;;21.03;26.04;98145.31;4994961;28;917;-77
2022/11/29 00:13:37;;;;;;;;;;;;;;;20.95;26.46;98150.31;4994767;28;1023;-76
2022/11/29 00:16:03;;;;;;;;;;;;;;;20.59;26.52;98155.13;4994988;28;1907;-76
2022/11/29 00:18:29;;;;;;;;;;;;;;;20.69;26.68;98149.25;4994495;28;963;-76
2022/11/29 00:20:54;;;;;;;;;;;;;;;20.91;26.29;98148.81;4978412;28;991;-75
2022/11/29 00:23:19;;;;;;;;;;;;;;;20.88;26.21;98158.16;5025754;28;1115;-77
2022/11/29 00:25:45;;;;;;;;;;;;;;;21.01;26.18;98161.94;4985075;28;1021;-75
2022/11/29 00:28:10;;;;;;;;;;;;;;;21.04;26.22;98159.03;5036381;28;913;-76
2022/11/29 00:30:36;;;;;;;;;;;;;;;20.62;26.78;98148.59;5018903;28;1381;-76
2022/11/29 00:33:02;;;;;;;;;;;;;;;20.69;26.80;98148.47;5042639;28;1230;-77
2022/11/29 00:35:27;;;;;;;;;;;;;;;20.23;27.54;98150.94;5045562;28;1914;-76
2022/11/29 00:37:52;;;;;;;;;;;;;;;20.72;26.86;98154.03;5043044;28;1413;-77
2022/11/29 00:40:18;;;;;;;;;;;;;;;20.70;26.87;98148.03;5042280;28;1312;-77
2022/11/29 00:42:43;;;;;;;;;;;;;;;20.83;26.60;98153.84;5050841;28;1332;-76
2022/11/29 00:45:09;;;;;;;;;;;;;;;21.10;26.08;98153.66;5003996;28;1013;-76
2022/11/29 00:47:34;;;;;;;;;;;;;;;20.57;26.91;98151.94;5053358;28;1035;-76
2022/11/29 00:50:00;;;;;;;;;;;;;;;20.58;27.08;98151.50;5003766;28;997;-76
2022/11/29 00:52:25;;;;;;;;;;;;;;;20.87;26.79;98159.41;5053430;28;957;-76
2022/11/29 00:54:51;;;;;;;;;;;;;;;20.67;27.00;98154.53;5053261;28;1981;-76
2022/11/29 00:57:16;;;;;;;;;;;;;;;20.73;26.88;98138.69;5053517;28;1018;-76
2022/11/29 00:59:41;;;;;;;;;;;;;;;20.91;26.39;98143.16;5036652;28;1027;-76
2022/11/29 01:02:07;;;;;;;;;;;;;;;20.62;26.73;98134.47;5053241;28;886;-77
2022/11/29 01:04:32;;;;;;;;;;;;;;;20.62;26.88;98146.56;5036810;28;915;-76
2022/11/29 01:06:58;;;;;;;;;;;;;;;20.64;26.72;98141.28;5053292;28;1029;-76
2022/11/29 01:09:23;;;;;;;;;;;;;;;20.67;27.08;98133.94;5054810;28;982;-76
2022/11/29 01:11:49;;;;;;;;;;;;;;;20.89;26.49;98128.66;5055655;28;1170;-76
2022/11/29 01:14:14;;;;;;;;;;;;;;;20.97;26.60;98135.75;5055527;28;997;-76
2022/11/29 01:16:40;;;;;;;;;;;;;;;20.83;26.58;98147.34;5055596;28;1910;-77
2022/11/29 01:19:06;;;;;;;;;;;;;;;20.52;26.92;98144.75;5055551;28;914;-76
2022/11/29 01:21:31;;;;;;;;;;;;;;;20.70;26.89;98139.53;5055220;28;897;-76
2022/11/29 01:23:57;;;;;;;;;;;;;;;20.69;26.93;98143.59;5055404;28;977;-76
2022/11/29 01:26:23;;;;;;;;;;;;;;;20.93;26.44;98140.69;5037719;28;1358;-76
2022/11/29 01:28:49;;;;;;;;;;;;;;;20.89;26.89;98135.13;5055192;28;901;-76
2022/11/29 01:31:15;;;;;;;;;;;;;;;20.78;27.01;98135.34;5037782;28;924;-76
2022/11/29 01:33:41;;;;;;;;;;;;;;;20.75;26.77;98136.19;5020293;28;906;-76
2022/11/29 01:36:07;;;;;;;;;;;;;;;20.61;27.14;98130.03;5055041;28;1993;-76
2022/11/29 01:38:32;;;;;;;;;;;;;;;20.46;27.38;98129.50;5037898;28;898;-76
2022/11/29 01:40:58;;;;;;;;;;;;;;;20.85;26.90;98122.28;5037651;28;908;-76
2022/11/29 01:43:23;;;;;;;;;;;;;;;20.88;26.63;98121.38;5037593;28;1506;-76
2022/11/29 01:45:49;;;;;;;;;;;;;;;20.98;26.71;98123.97;5054948;28;921;-76
2022/11/29 01:48:14;;;;;;;;;;;;;;;20.96;26.53;98131.31;5037584;28;968;-76
2022/11/29 01:50:40;;;;;;;;;;;;;;;20.45;27.26;98116.59;5055331;28;940;-76
2022/11/29 01:53:05;;;;;;;;;;;;;;;20.50;27.20;98125.41;5055529;28;906;-76
2022/11/29 01:55:31;;;;;;;;;;;;;;;20.81;26.77;98122.34;5058392;28;1918;-77
2022/11/29 01:57:56;;;;;;;;;;;;;;;20.84;26.70;98109.38;5041541;28;952;-76
2022/11/29 02:00:22;;;;;;;;;;;;;;;21.03;26.41;98111.34;5041375;28;1311;-77
2022/11/29 02:02:57;;;;;;;;;;;;;;;20.85;26.67;98110.97;5058763;28;955;-77
2022/11/29 02:05:23;;;;;;;;;;;;;;;20.70;26.99;98105.59;5041504;28;1038;-76
2022/11/29 02:07:48;;;;;;;;;;;;;;;20.51;27.06;98103.59;5059063;28;907;-76
2022/11/29 02:10:14;;;;;;;;;;;;;;;20.41;27.33;98111.00;5059190;28;883;-77
2022/11/29 02:12:49;;;;;;;;;;;;;;;21.08;26.52;98108.00;5040826;28;931;-77
2022/11/29 02:15:14;;;;;;;;;;;;;;;20.99;26.63;98099.34;5058518;28;1972;-76
2022/11/29 02:17:58;;;;;;;;;;;;;;;20.98;26.77;98103.38;5058721;28;1062;-76
2022/11/29 02:20:30;;;;;;;;;;;;;;;21.10;26.32;98088.56;5058935;28;992;-76
2022/11/29 02:23:02;;;;;;;;;;;;;;;20.92;26.82;98093.84;5058803;28;1071;-76
2022/11/29 02:25:46;;;;;;;;;;;;;;;20.71;26.93;98098.72;5058726;28;952;-76
2022/11/29 02:28:20;;;;;;;;;;;;;;;20.62;27.22;98095.66;5040382;28;926;-77
2022/11/29 02:30:54;;;;;;;;;;;;;;;20.85;26.85;98102.47;5058420;28;859;-77
2022/11/29 02:33:26;;;;;;;;;;;;;;;21.00;26.75;98109.41;5024146;28;1326;-76
2022/11/29 02:35:56;;;;;;;;;;;;;;;20.79;26.89;98094.50;5041140;28;1989;-77
2022/11/29 02:38:28;;;;;;;;;;;;;;;20.55;27.21;98098.66;5040891;28;1066;-77
2022/11/29 02:41:12;;;;;;;;;;;;;;;20.71;27.15;98098.72;5040617;28;1022;-76
2022/11/29 02:43:56;;;;;;;;;;;;;;;20.66;27.28;98102.06;5058662;28;952;-77
2022/11/29 02:46:37;;;;;;;;;;;;;;;20.70;27.15;98105.59;5058555;28;1042;-76
2022/11/29 02:49:05;;;;;;;;;;;;;;;21.01;26.55;98099.69;5058727;28;906;-77
2022/11/29 02:51:42;;;;;;;;;;;;;;;20.95;26.79;98093.75;5058265;28;997;-76
2022/11/29 02:54:42;;;;;;;;;;;;;;;20.62;27.20;98092.84;5040728;28;947;-76
2022/11/29 02:57:17;;;;;;;;;;;;;;;20.65;26.87;98103.28;4958143;29;1022;-76
2022/11/29 02:59:47;;;;;;;;;;;;;;;21.06;26.48;98111.28;4957715;29;926;-76
2022/11/29 03:02:13;;;;;;;;;;;;;;;21.02;26.61;98115.44;4958119;29;1039;-77
2022/11/29 03:04:38;;;;;;;;;;;;;;;20.88;26.97;98116.56;4941486;28;991;-76
2022/11/29 03:07:22;;;;;;;;;;;;;;;20.88;26.80;98127.03;4956740;29;993;-77
2022/11/29 03:09:54;;;;;;;;;;;;;;;20.85;27.03;98116.63;4941320;29;945;-76
2022/11/29 03:12:29;;;;;;;;;;;;;;;20.61;27.33;98113.88;4925961;29;1058;-77
2022/11/29 03:14:56;;;;;;;;;;;;;;;20.44;27.42;98126.31;4919109;29;1978;-76
2022/11/29 03:17:26;;;;;;;;;;;;;;;20.79;27.20;98119.16;4903422;29;1173;-76
2022/11/29 03:19:57;;;;;;;;;;;;;;;20.84;26.96;98109.38;4903495;29;1019;-77
2022/11/29 03:22:23;;;;;;;;;;;;;;;20.94;26.66;98114.81;4919393;29;972;-76
2022/11/29 03:25:06;;;;;;;;;;;;;;;20.84;26.90;98110.19;4919292;29;946;-77
2022/11/29 03:27:37;;;;;;;;;;;;;;;20.53;27.28;98113.25;4919012;29;976;-76
2022/11/29 03:30:04;;;;;;;;;;;;;;;20.44;27.47;98106.53;4893177;28;1067;-76
2022/11/29 03:32:34;;;;;;;;;;;;;;;20.91;26.96;98109.22;4999472;28;1084;-77
2022/11/29 03:34:59;;;;;;;;;;;;;;;20.93;27.09;98101.06;5015385;28;1914;-77
2022/11/29 03:37:43;;;;;;;;;;;;;;;20.86;26.91;98106.91;5015421;28;1234;-77
2022/11/29 03:40:10;;;;;;;;;;;;;;;20.53;27.50;98112.44;4998735;28;1007;-77
2022/11/29 03:42:35;;;;;;;;;;;;;;;20.70;27.30;98116.13;4999000;28;1016;-76
2022/11/29 03:45:14;;;;;;;;;;;;;;;20.65;27.22;98103.28;5020696;28;1130;-76
2022/11/29 03:47:41;;;;;;;;;;;;;;;20.97;26.64;98102.59;5039674;28;931;-76
2022/11/29 03:50:10;;;;;;;;;;;;;;;20.91;26.81;98109.22;5023350;28;939;-77
2022/11/29 03:52:41;;;;;;;;;;;;;;;21.09;26.59;98103.97;5022997;28;996;-76
2022/11/29 03:55:16;;;;;;;;;;;;;;;20.75;26.75;98107.13;5057186;28;1975;-76
2022/11/29 03:57:50;;;;;;;;;;;;;;;20.62;27.25;98114.66;5022690;28;920;-77
2022/11/29 04:00:16;;;;;;;;;;;;;;;20.57;27.10;98127.28;5057288;28;956;-77
2022/11/29 04:02:45;;;;;;;;;;;;;;;20.96;26.66;98120.00;5039134;28;844;-77
2022/11/29 04:05:10;;;;;;;;;;;;;;;20.92;26.74;98127.78;5056743;28;949;-76
2022/11/29 04:07:42;;;;;;;;;;;;;;;21.10;26.59;98122.53;5056829;28;906;-76
2022/11/29 04:10:10;;;;;;;;;;;;;;;20.88;26.92;98130.69;5038988;28;987;-77
2022/11/29 04:12:39;;;;;;;;;;;;;;;20.46;27.57;98129.50;5056662;28;971;-76
2022/11/29 04:15:37;;;;;;;;;;;;;;;20.64;27.02;98129.97;5056935;28;1996;-77
2022/11/29 04:18:02;;;;;;;;;;;;;;;20.81;26.88;98131.63;4955760;28;900;-76
2022/11/29 04:20:46;;;;;;;;;;;;;;;20.93;26.70;98124.50;4956453;29;1049;-76
2022/11/29 04:23:21;;;;;;;;;;;;;;;20.89;26.80;98128.66;4940163;29;1047;-76
2022/11/29 04:25:49;;;;;;;;;;;;;;;21.11;26.72;98140.31;4940089;29;1036;-76
2022/11/29 04:28:23;;;;;;;;;;;;;;;20.92;26.71;98150.41;4939912;29;1051;-77
2022/11/29 04:30:56;;;;;;;;;;;;;;;20.41;27.76;98150.59;4939952;29;1044;-76
2022/11/29 04:33:26;;;;;;;;;;;;;;;20.60;27.45;98153.91;4939963;29;1027;-77
2022/11/29 04:36:01;;;;;;;;;;;;;;;20.79;27.06;98153.09;4940085;29;1983;-76
2022/11/29 04:38:38;;;;;;;;;;;;;;;21.08;26.66;98153.28;4939994;29;1000;-77
2022/11/29 04:41:06;;;;;;;;;;;;;;;21.22;26.57;98163.47;4955785;29;1144;-76
2022/11/29 04:43:32;;;;;;;;;;;;;;;20.67;27.18;98151.72;4940193;29;934;-76
2022/11/29 04:45:57;;;;;;;;;;;;;;;20.80;27.12;98141.34;4939708;29;979;-76
2022/11/29 04:48:25;;;;;;;;;;;;;;;20.64;27.59;98144.13;4955710;29;1048;-76
2022/11/29 04:51:09;;;;;;;;;;;;;;;20.93;27.02;98137.84;4955667;29;999;-76
2022/11/29 04:53:38;;;;;;;;;;;;;;;20.88;26.99;98149.66;4986913;28;1160;-77
2022/11/29 04:56:22;;;;;;;;;;;;;;;21.01;26.67;98139.28;5038322;28;1910;-76
2022/11/29 04:58:56;;;;;;;;;;;;;;;20.75;27.25;98135.41;5056010;28;918;-77
2022/11/29 05:01:24;;;;;;;;;;;;;;;20.52;27.24;98133.44;5055899;28;1174;-76
2022/11/29 05:03:59;;;;;;;;;;;;;;;20.71;27.53;98146.78;5026289;28;1099;-77
2022/11/29 05:06:31;;;;;;;;;;;;;;;20.70;27.23;98150.84;5034717;28;970;-77
2022/11/29 05:09:06;;;;;;;;;;;;;;;20.96;26.99;98146.25;5035078;28;885;-77
2022/11/29 05:11:41;;;;;;;;;;;;;;;21.25;26.51;98140.78;5018209;28;914;-76
2022/11/29 05:14:23;;;;;;;;;;;;;;;20.61;27.12;98142.16;5036209;28;911;-75
2022/11/29 05:17:07;;;;;;;;;;;;;;;20.72;27.35;98147.56;5034416;28;1910;-76
2022/11/29 05:19:47;;;;;;;;;;;;;;;20.64;27.36;98158.25;5035982;28;930;-76
2022/11/29 05:22:31;;;;;;;;;;;;;;;21.04;27.03;98169.56;5018381;28;979;-77
2022/11/29 05:25:02;;;;;;;;;;;;;;;20.94;26.67;98162.09;5035711;28;901;-75
2022/11/29 05:27:31;;;;;;;;;;;;;;;20.88;27.22;98155.31;5035933;28;977;-75
2022/11/29 05:29:56;;;;;;;;;;;;;;;20.69;26.97;98171.09;5020577;28;1111;-75
2022/11/29 05:32:40;;;;;;;;;;;;;;;20.69;27.16;98156.94;5022242;28;1143;-75
2022/11/29 05:35:05;;;;;;;;;;;;;;;20.93;27.05;98166.13;5038716;28;1905;-75
2022/11/29 05:37:37;;;;;;;;;;;;;;;21.11;26.88;98166.56;5022235;28;1164;-76
2022/11/29 05:40:03;;;;;;;;;;;;;;;21.04;26.62;98167.50;5039642;28;935;-75
2022/11/29 05:42:45;;;;;;;;;;;;;;;21.01;26.69;98159.09;5039724;28;897;-76
2022/11/29 05:45:19;;;;;;;;;;;;;;;20.61;27.58;98170.41;5018598;28;1442;-75
2022/11/29 05:47:49;;;;;;;;;;;;;;;20.58;27.80;98173.34;5026028;28;1281;-76
2022/11/29 05:50:20;;;;;;;;;;;;;;;20.59;27.76;98172.91;5015739;28;1310;-76
2022/11/29 05:52:48;;;;;;;;;;;;;;;20.81;27.42;98162.72;5011873;28;1309;-76
2022/11/29 05:55:14;;;;;;;;;;;;;;;21.05;27.05;98171.13;5010608;28;1915;-76
2022/11/29 05:57:52;;;;;;;;;;;;;;;20.99;27.20;98172.91;5027057;28;1147;-75
2022/11/29 06:00:17;;;;;;;;;;;;;;;21.05;26.94;98171.94;5010909;28;1167;-75
2022/11/29 06:02:43;;;;;;;;;;;;;;;20.61;27.26;98167.59;5027417;28;1301;-75
2022/11/29 06:05:12;;;;;;;;;;;;;;;20.74;26.96;98168.53;5027544;28;1245;-76
2022/11/29 06:07:56;;;;;;;;;;;;;;;20.91;27.03;98175.06;5010526;28;1475;-75
2022/11/29 06:10:22;;;;;;;;;;;;;;;20.85;27.33;98167.53;5027506;28;1116;-76
2022/11/29 06:12:58;;;;;;;;;;;;;;;20.93;26.86;98181.06;5011137;28;1166;-76
2022/11/29 06:15:48;;;;;;;;;;;;;;;20.99;27.09;98184.22;5027163;28;1898;-76
2022/11/29 06:18:36;;;;;;;;;;;;;;;20.55;27.28;98178.59;5010754;28;1226;-76
2022/11/29 06:21:07;;;;;;;;;;;;;;;20.39;27.65;98197.47;5003214;28;1523;-75
2022/11/29 06:24:02;;;;;;;;;;;;;;;20.74;27.60;98194.00;5003276;28;1294;-75
2022/11/29 06:26:33;;;;;;;;;;;;;;;20.71;27.55;98189.19;4957671;29;1204;-76
2022/11/29 06:29:12;;;;;;;;;;;;;;;21.19;26.72;98187.00;4923745;29;1232;-75
2022/11/29 06:31:43;;;;;;;;;;;;;;;20.92;27.09;98201.31;4925680;29;1252;-76
2022/11/29 06:34:08;;;;;;;;;;;;;;;20.59;27.42;98204.00;4956401;29;1258;-75
2022/11/29 06:36:43;;;;;;;;;;;;;;;20.75;27.31;98209.72;4941371;29;1969;-76
2022/11/29 06:39:09;;;;;;;;;;;;;;;20.91;27.43;98211.03;4957899;29;1236;-76
2022/11/29 06:41:34;;;;;;;;;;;;;;;20.91;27.35;98208.22;4956948;28;1222;-76
2022/11/29 06:44:00;;;;;;;;;;;;;;;20.79;27.47;98210.47;4957415;29;1226;-75
2022/11/29 06:46:44;;;;;;;;;;;;;;;20.88;27.43;98209.06;4957439;29;1329;-75
2022/11/29 06:49:15;;;;;;;;;;;;;;;20.84;27.39;98212.00;4956406;29;1252;-75
2022/11/29 06:51:50;;;;;;;;;;;;;;;20.88;27.31;98211.88;4958163;29;1235;-75
2022/11/29 06:54:18;;;;;;;;;;;;;;;20.86;27.21;98212.34;4959521;28;987;-76
2022/11/29 06:57:05;;;;;;;;;;;;;;;20.54;27.70;98210.16;4971240;28;1978;-76
2022/11/29 06:59:40;;;;;;;;;;;;;;;20.88;27.31;98218.38;4950727;28;1319;-76
2022/11/29 07:02:14;;;;;;;;;;;;;;;20.69;27.72;98217.13;4964345;28;1216;-75
2022/11/29 07:04:40;;;;;;;;;;;;;;;20.97;26.97;98214.94;5046648;28;1225;-76
2022/11/29 07:07:12;;;;;;;;;;;;;;;20.64;27.40;98214.81;5031091;28;1292;-76
2022/11/29 07:09:37;;;;;;;;;;;;;;;20.61;27.67;98229.78;5048246;28;1245;-76
2022/11/29 07:12:03;;;;;;;;;;;;;;;20.73;27.50;98226.34;5045202;28;1281;-75
2022/11/29 07:14:28;;;;;;;;;;;;;;;20.96;27.39;98230.31;5047785;28;1276;-76
2022/11/29 07:17:03;;;;;;;;;;;;;;;20.81;27.51;98224.94;5044862;28;1975;-76
2022/11/29 07:19:28;;;;;;;;;;;;;;;21.16;26.67;98211.31;5027653;28;1294;-76
2022/11/29 07:22:00;;;;;;;;;;;;;;;20.65;27.63;98205.06;5044825;28;1312;-76
2022/11/29 07:24:31;;;;;;;;;;;;;;;20.80;27.51;98223.38;5043571;28;1225;-75
2022/11/29 07:26:56;;;;;;;;;;;;;;;20.73;27.76;98217.06;5037813;28;1099;-75
2022/11/29 07:29:22;;;;;;;;;;;;;;;20.87;27.24;98221.63;5019044;28;918;-76
2022/11/29 07:32:05;;;;;;;;;;;;;;;20.73;27.61;98217.84;5035767;28;1103;-76
2022/11/29 07:34:50;;;;;;;;;;;;;;;21.05;27.14;98202.25;5046009;28;1123;-76
2022/11/29 07:37:20;;;;;;;;;;;;;;;20.76;27.17;98211.31;5050463;28;1207;-75
2022/11/29 07:39:52;;;;;;;;;;;;;;;20.46;27.86;98203.00;5015359;28;1017;-76
2022/11/29 07:42:25;;;;;;;;;;;;;;;21.07;27.01;98202.59;5014967;28;950;-75
2022/11/29 07:45:11;;;;;;;;;;;;;;;21.07;26.97;98211.09;4983031;28;1031;-75
2022/11/29 07:47:37;;;;;;;;;;;;;;;21.12;26.85;98195.66;4990649;28;1096;-76
2022/11/29 07:50:02;;;;;;;;;;;;;;;20.94;27.26;98198.88;4994830;28;1282;-75
2022/11/29 07:52:28;;;;;;;;;;;;;;;20.66;27.66;98201.00;4993756;28;1297;-75
2022/11/29 07:54:53;;;;;;;;;;;;;;;20.64;27.53;98202.69;4978814;28;1907;-76
2022/11/29 07:57:19;;;;;;;;;;;;;;;20.80;27.45;98214.09;4978643;28;1239;-75
2022/11/29 07:59:44;;;;;;;;;;;;;;;20.74;27.68;98213.78;4994961;28;1337;-76
2022/11/29 08:02:10;;;;;;;;;;;;;;;20.88;27.57;98206.22;4978981;28;1120;-75
2022/11/29 08:04:42;;;;;;;;;;;;;;;20.77;27.60;98212.09;4978448;28;1266;-75
2022/11/29 08:07:08;;;;;;;;;;;;;;;20.74;27.55;98202.47;4989370;28;988;-76
2022/11/29 08:09:33;;;;;;;;;;;;;;;20.69;27.41;98214.28;5014933;28;1048;-76
2022/11/29 08:11:59;;;;;;;;;;;;;;;20.55;27.90;98211.72;5037759;28;1120;-74
2022/11/29 08:14:24;;;;;;;;;;;;;;;20.99;27.09;98215.31;5054448;28;957;-75
2022/11/29 08:16:50;;;;;;;;;;;;;;;20.95;27.27;98217.41;5054438;28;1971;-75
2022/11/29 08:19:15;;;;;;;;;;;;;;;20.93;27.20;98208.56;5054401;28;1016;-75
2022/11/29 08:21:42;;;;;;;;;;;;;;;20.71;27.58;98209.00;5054290;28;1026;-75
2022/11/29 08:24:07;;;;;;;;;;;;;;;20.59;27.61;98217.34;5022475;28;1340;-75
2022/11/29 08:26:33;;;;;;;;;;;;;;;20.53;27.73;98220.66;5024238;28;1233;-75
2022/11/29 08:28:58;;;;;;;;;;;;;;;21.06;27.34;98213.13;5024255;28;1242;-75
2022/11/29 08:31:23;;;;;;;;;;;;;;;20.98;27.52;98216.53;5028150;28;1178;-75
2022/11/29 08:33:49;;;;;;;;;;;;;;;20.92;27.32;98223.94;5036305;28;918;-75
2022/11/29 08:36:16;;;;;;;;;;;;;;;20.86;27.48;98211.53;5043787;28;1991;-75
2022/11/29 08:38:41;;;;;;;;;;;;;;;20.61;27.87;98215.66;5056623;28;966;-76
2022/11/29 08:41:07;;;;;;;;;;;;;;;20.72;27.77;98216.25;5056277;28;1262;-75
2022/11/29 08:43:33;;;;;;;;;;;;;;;20.85;27.52;98229.75;5038154;28;1433;-75
2022/11/29 08:45:58;;;;;;;;;;;;;;;20.92;27.47;98235.25;5038693;28;926;-75
2022/11/29 08:48:24;;;;;;;;;;;;;;;20.85;27.41;98236.19;5056304;28;967;-75
2022/11/29 08:50:52;;;;;;;;;;;;;;;21.08;27.10;98226.84;5056068;28;960;-76
2022/11/29 08:56:02;;;;;;;;;;;;;;;20.58;28.08;98210.09;5033633;28;1902;-75
2022/11/29 08:58:27;;;;;;;;;;;;;;;20.81;27.87;98218.50;5033734;28;975;-75
2022/11/29 09:00:53;;;;;;;;;;;;;;;20.72;27.56;98216.25;5024478;28;1106;-75
2022/11/29 09:06:04;;;;;;;;;;;;;;;20.79;27.37;98218.94;5033405;28;1062;-75
2022/11/29 09:08:30;;;;;;;;;;;;;;;20.54;28.21;98210.16;5027673;28;1125;-76
2022/11/29 09:10:55;;;;;;;;;;;;;;;20.55;28.22;98211.72;5022324;28;1197;-75
2022/11/29 09:13:21;;;;;;;;;;;;;;;20.95;27.47;98220.25;5023945;28;1344;-75
2022/11/29 09:15:46;;;;;;;;;;;;;;;20.99;27.45;98213.28;5022633;28;1898;-75
2022/11/29 09:18:12;;;;;;;;;;;;;;;21.04;27.36;98203.50;5001376;28;1272;-75
2022/11/29 09:20:37;;;;;;;;;;;;;;;20.75;27.63;98201.25;5013909;28;964;-75
2022/11/29 09:23:02;;;;;;;;;;;;;;;20.60;27.83;98202.75;5014142;28;1020;-75
2022/11/29 09:25:28;;;;;;;;;;;;;;;20.48;28.19;98197.75;5035069;28;1390;-76
2022/11/29 09:27:54;;;;;;;;;;;;;;;20.71;28.08;98197.69;5044690;28;1205;-75
2022/11/29 09:30:19;;;;;;;;;;;;;;;20.75;27.95;98195.59;5043452;28;1307;-75
2022/11/29 09:32:45;;;;;;;;;;;;;;;21.15;27.45;98189.91;5046201;28;1186;-75
2022/11/29 09:35:10;;;;;;;;;;;;;;;20.85;27.85;98190.16;5045290;28;1898;-75
2022/11/29 09:37:36;;;;;;;;;;;;;;;20.93;27.59;98180.28;5049478;28;1217;-75
2022/11/29 09:40:03;;;;;;;;;;;;;;;20.59;27.93;98172.91;5054331;28;1002;-75
2022/11/29 09:42:32;;;;;;;;;;;;;;;20.95;27.61;98181.44;5055411;28;935;-75
2022/11/29 09:45:08;;;;;;;;;;;;;;;20.84;27.83;98178.06;5055580;28;937;-75
2022/11/29 09:47:56;;;;;;;;;;;;;;;20.90;27.60;98169.84;5055297;28;1036;-75
2022/11/29 09:50:25;;;;;;;;;;;;;;;20.90;27.61;98167.03;5054283;28;958;-75
2022/11/29 09:52:56;;;;;;;;;;;;;;;20.52;28.03;98162.53;5037860;28;1007;-75
2022/11/29 09:55:25;;;;;;;;;;;;;;;20.63;28.08;98167.97;5055410;28;1902;-75
2022/11/29 09:57:50;;;;;;;;;;;;;;;20.65;28.06;98173.19;5055516;28;897;-75
2022/11/29 10:00:17;;;;;;;;;;;;;;;21.07;27.67;98163.78;5054215;28;1068;-75
2022/11/29 10:02:49;;;;;;;;;;;;;;;21.30;27.34;98159.31;5055431;28;873;-75
2022/11/29 10:05:25;;;;;;;;;;;;;;;21.17;27.44;98167.63;5054125;28;876;-75
2022/11/29 10:07:55;;;;;;;;;;;;;;;20.62;28.06;98157.88;5054012;28;901;-75
2022/11/29 10:10:20;;;;;;;;;;;;;;;20.68;28.08;98153.31;5055157;28;1020;-74
2022/11/29 10:12:47;;;;;;;;;;;;;;;20.31;28.92;98157.22;5020916;28;1381;-75
2022/11/29 10:15:17;;;;;;;;;;;;;;;20.84;27.89;98155.44;5055026;28;1964;-75
2022/11/29 10:17:43;;;;;;;;;;;;;;;20.75;27.94;98153.16;5016336;28;2057;-75
2022/11/29 10:20:12;;;;;;;;;;;;;;;20.93;27.87;98155.59;5000558;28;984;-75
2022/11/29 10:22:39;;;;;;;;;;;;;;;20.84;28.01;98160.28;5000583;28;962;-75
2022/11/29 10:25:05;;;;;;;;;;;;;;;20.57;28.45;98161.19;5000760;28;1025;-75
2022/11/29 10:27:31;;;;;;;;;;;;;;;20.57;28.55;98155.56;5000357;28;1155;-75
2022/11/29 10:29:58;;;;;;;;;;;;;;;20.95;27.73;98161.66;5017202;28;955;-75
2022/11/29 10:32:24;;;;;;;;;;;;;;;20.90;27.82;98164.19;5000624;28;973;-75
2022/11/29 10:34:49;;;;;;;;;;;;;;;20.85;27.89;98156.22;5000238;28;2063;-75
2022/11/29 10:37:18;;;;;;;;;;;;;;;20.74;28.04;98171.38;5000178;28;1051;-76
2022/11/29 10:39:45;;;;;;;;;;;;;;;20.64;28.58;98169.56;5000591;28;989;-76
2022/11/29 10:44:59;;;;;;;;;;;;;;;20.68;28.26;98173.13;5002631;28;1124;-76
2022/11/29 10:47:25;;;;;;;;;;;;;;;20.91;28.03;98177.09;4996754;28;924;-75
2022/11/29 10:49:50;;;;;;;;;;;;;;;20.82;28.18;98169.19;5015850;28;941;-76
2022/11/29 10:52:19;;;;;;;;;;;;;;;20.54;28.29;98181.88;4999937;28;1010;-76
2022/11/29 10:54:45;;;;;;;;;;;;;;;20.60;28.69;98182.97;4999721;28;1903;-76
2022/11/29 10:57:14;;;;;;;;;;;;;;;20.54;28.64;98170.56;5016184;28;973;-75
2022/11/29 10:59:39;;;;;;;;;;;;;;;21.07;28.06;98174.31;4999997;28;1013;-75
2022/11/29 11:02:23;;;;;;;;;;;;;;;20.94;28.17;98171.38;5016346;28;1113;-76
2022/11/29 11:04:48;;;;;;;;;;;;;;;20.94;28.23;98170.56;4983561;28;999;-76
2022/11/29 11:07:35;;;;;;;;;;;;;;;20.93;27.91;98174.63;4983608;28;1454;-75
2022/11/29 11:10:02;;;;;;;;;;;;;;;20.57;28.48;98175.34;4999942;28;1013;-76
2022/11/29 11:12:28;;;;;;;;;;;;;;;20.64;28.58;98161.06;4999377;28;1054;-75
2022/11/29 11:15:14;;;;;;;;;;;;;;;21.07;28.12;98163.00;4996368;28;1985;-75
2022/11/29 11:17:41;;;;;;;;;;;;;;;20.88;28.54;98160.97;5000037;28;1116;-75
2022/11/29 11:20:19;;;;;;;;;;;;;;;21.09;27.96;98160.56;4999525;28;960;-76
2022/11/29 11:22:54;;;;;;;;;;;;;;;21.03;28.01;98167.94;4999442;28;847;-76
2022/11/29 11:25:29;;;;;;;;;;;;;;;20.80;28.77;98152.66;4999661;28;951;-72
2022/11/29 11:27:55;;;;;;;;;;;;;;;20.63;28.88;98162.31;5014334;28;1012;-73
2022/11/29 11:30:24;;;;;;;;;;;;;;;20.42;29.37;98151.41;5012876;28;1636;-71
2022/11/29 11:33:17;;;;;;;;;;;;;;;20.52;29.52;98156.06;5015129;28;1035;-71
2022/11/29 11:35:42;;;;;;;;;;;;;;;20.41;29.70;98149.78;5017627;28;1914;-71
2022/11/29 11:38:13;;;;;;;;;;;;;;;20.76;28.78;98137.78;4999061;28;888;-70
2022/11/29 11:40:39;;;;;;;;;;;;;;;20.77;28.90;98133.72;5008965;28;1005;-69
2022/11/29 11:43:04;;;;;;;;;;;;;;;20.71;29.07;98132.66;5035261;28;993;-69
2022/11/29 11:45:33;;;;;;;;;;;;;;;20.51;29.63;98134.69;5025757;28;1016;-75
2022/11/29 11:48:12;;;;;;;;;;;;;;;20.59;29.37;98133.31;5017499;28;1902;-69
2022/11/29 11:50:44;;;;;;;;;;;;;;;20.58;29.54;98130.94;5037187;28;1371;-69
2022/11/29 11:53:20;;;;;;;;;;;;;;;20.48;29.71;98144.03;5056347;28;965;-75
2022/11/29 11:55:53;;;;;;;;;;;;;;;20.94;29.13;98145.13;5055360;28;1910;-69
2022/11/29 11:58:20;;;;;;;;;;;;;;;21.52;28.60;98142.59;5051300;28;969;-70
2022/11/29 12:00:49;;;;;;;;;;;;;;;22.08;28.08;98145.25;4998705;28;1069;-70
2022/11/29 12:03:32;;;;;;;;;;;;;;;21.63;28.87;98157.28;5014905;28;991;-71
2022/11/29 12:06:00;;;;;;;;;;;;;;;21.42;28.87;98152.16;5013098;28;1739;-71
2022/11/29 12:08:26;;;;;;;;;;;;;;;21.69;28.82;98174.56;4991767;28;1682;-71
2022/11/29 12:10:52;;;;;;;;;;;;;;;21.63;28.98;98171.47;5014367;28;1045;-70
2022/11/29 12:13:19;;;;;;;;;;;;;;;21.33;29.36;98169.72;4997064;28;1908;-74
2022/11/29 12:15:46;;;;;;;;;;;;;;;21.46;29.37;98172.69;4993660;28;1922;-76
2022/11/29 12:18:14;;;;;;;;;;;;;;;21.40;29.79;98163.09;4986598;28;1302;-73
2022/11/29 12:20:41;;;;;;;;;;;;;;;21.26;29.62;98169.88;4978586;28;967;-74
2022/11/29 12:23:13;;;;;;;;;;;;;;;21.81;28.83;98162.50;4979194;28;1756;-72
2022/11/29 12:25:41;;;;;;;;;;;;;;;21.05;30.14;98159.81;4968937;28;1958;-70
2022/11/29 12:28:09;;;;;;;;;;;;;;;21.19;30.06;98153.84;5014439;28;1022;-76
2022/11/29 12:30:35;;;;;;;;;;;;;;;21.01;30.54;98162.72;4998549;28;971;-73
2022/11/29 12:33:27;;;;;;;;;;;;;;;21.08;30.50;98164.59;5031974;28;1706;-70
2022/11/29 12:36:04;;;;;;;;;;;;;;;21.02;30.25;98161.47;4955664;29;1982;-70
2022/11/29 12:38:42;;;;;;;;;;;;;;;20.64;30.95;98175.22;4955924;28;1012;-70
2022/11/29 12:41:27;;;;;;;;;;;;;;;21.07;30.35;98185.63;4975333;28;1055;-70
2022/11/29 12:44:04;;;;;;;;;;;;;;;20.69;31.25;98183.19;4955778;29;1030;-70
2022/11/29 12:46:30;;;;;;;;;;;;;;;21.13;30.49;98188.75;4939892;29;1005;-71
2022/11/29 12:49:10;;;;;;;;;;;;;;;20.61;31.31;98193.03;4927353;29;1171;-71
2022/11/29 12:51:51;;;;;;;;;;;;;;;21.10;30.42;98187.59;4936749;29;992;-71
2022/11/29 12:54:23;;;;;;;;;;;;;;;21.07;30.69;98194.13;4920547;29;1108;-71
2022/11/29 12:56:48;;;;;;;;;;;;;;;21.13;31.14;98198.03;4920673;29;1906;-77
2022/11/29 12:59:14;;;;;;;;;;;;;;;21.25;31.04;98188.88;4935853;29;986;-73
2022/11/29 13:01:51;;;;;;;;;;;;;;;21.06;31.63;98195.38;4940633;29;1834;-71
2022/11/29 13:04:17;;;;;;;;;;;;;;;21.61;30.81;98196.59;4937483;29;1362;-73
2022/11/29 13:06:49;;;;;;;;;;;;;;;21.41;31.08;98202.31;4936295;29;1105;-73
2022/11/29 13:09:17;;;;;;;;;;;;;;;21.55;31.00;98202.00;4920428;29;973;-74
2022/11/29 13:11:48;;;;;;;;;;;;;;;21.43;30.88;98208.31;4937998;29;928;-76
2022/11/29 13:14:16;;;;;;;;;;;;;;;21.05;31.57;98207.91;4952375;29;1840;-73
2022/11/29 13:16:47;;;;;;;;;;;;;;;21.01;32.03;98210.03;4955370;29;1976;-76
2022/11/29 13:19:33;;;;;;;;;;;;;;;21.21;31.32;98215.66;4955184;29;1008;-74
2022/11/29 13:21:59;;;;;;;;;;;;;;;20.97;31.77;98214.94;5004748;28;1648;-77
2022/11/29 13:24:27;;;;;;;;;;;;;;;20.95;32.00;98217.41;5026419;28;922;-75